createdAt,value
2022-10-25T00:00:26.000Z,13.5
2022-10-25T00:03:10.000Z,13.5
2022-10-25T00:05:55.000Z,13.5
2022-10-25T00:08:40.000Z,13.5
2022-10-25T00:09:57.000Z,13.5
2022-10-25T00:11:24.000Z,13.5
2022-10-25T00:14:09.000Z,13.5
2022-10-25T00:16:54.000Z,13.5
2022-10-25T00:19:38.000Z,13.4
2022-10-25T00:22:23.000Z,13.4
2022-10-25T00:25:07.000Z,13.4
2022-10-25T00:27:52.000Z,13.4
2022-10-25T00:30:37.000Z,13.4
2022-10-25T00:33:21.000Z,13.4
2022-10-25T00:36:06.000Z,13.4
2022-10-25T00:37:24.000Z,13.4
2022-10-25T00:38:51.000Z,13.4
2022-10-25T00:41:35.000Z,13.4
2022-10-25T00:47:05.000Z,13.5
2022-10-25T00:49:49.000Z,13.5
2022-10-25T00:52:34.000Z,13.5
2022-10-25T00:55:19.000Z,13.5
2022-10-25T00:58:03.000Z,13.5
2022-10-25T01:00:48.000Z,13.6
2022-10-25T01:03:32.000Z,13.6
2022-10-25T01:04:50.000Z,13.6
2022-10-25T01:06:17.000Z,13.7
2022-10-25T01:09:02.000Z,13.7
2022-10-25T01:11:46.000Z,13.7
2022-10-25T01:14:31.000Z,13.7
2022-10-25T01:20:00.000Z,13.8
2022-10-25T01:22:45.000Z,13.9
2022-10-25T01:25:30.000Z,13.9
2022-10-25T01:28:14.000Z,13.9
2022-10-25T01:32:17.000Z,14
2022-10-25T01:33:43.000Z,14
2022-10-25T01:36:28.000Z,14
2022-10-25T01:39:13.000Z,14
2022-10-25T01:44:42.000Z,14.2
2022-10-25T01:47:27.000Z,14.3
2022-10-25T01:50:11.000Z,14.4
2022-10-25T01:52:56.000Z,14.4
2022-10-25T01:55:41.000Z,14.4
2022-10-25T01:58:25.000Z,14.5
2022-10-25T01:59:43.000Z,14.5
2022-10-25T02:01:10.000Z,14.5
2022-10-25T02:03:55.000Z,14.5
2022-10-25T02:06:39.000Z,14.5
2022-10-25T02:09:24.000Z,14.5
2022-10-25T02:12:08.000Z,14.5
2022-10-25T02:14:53.000Z,14.6
2022-10-25T02:20:06.000Z,14.6
2022-10-25T02:22:51.000Z,14.5
2022-10-25T02:25:35.000Z,14.5
2022-10-25T02:27:10.000Z,14.5
2022-10-25T02:28:27.000Z,14.5
2022-10-25T02:31:12.000Z,14.5
2022-10-25T02:33:57.000Z,14.5
2022-10-25T02:36:41.000Z,14.5
2022-10-25T02:39:26.000Z,14.5
2022-10-25T02:42:10.000Z,14.5
2022-10-25T02:44:55.000Z,14.5
2022-10-25T02:47:40.000Z,14.5
2022-10-25T02:50:24.000Z,14.5
2022-10-25T02:53:09.000Z,14.5
2022-10-25T02:54:36.000Z,14.5
2022-10-25T02:55:54.000Z,14.5
2022-10-25T02:58:38.000Z,14.5
2022-10-25T03:01:23.000Z,14.5
2022-10-25T03:06:52.000Z,14.5
2022-10-25T03:09:37.000Z,14.5
2022-10-25T03:12:22.000Z,14.6
2022-10-25T03:15:06.000Z,14.6
2022-10-25T03:17:51.000Z,14.6
2022-10-25T03:20:35.000Z,14.6
2022-10-25T03:22:02.000Z,14.6
2022-10-25T03:23:20.000Z,14.6
2022-10-25T03:26:05.000Z,14.6
2022-10-25T03:28:49.000Z,14.6
2022-10-25T03:31:34.000Z,14.6
2022-10-25T03:34:19.000Z,14.6
2022-10-25T03:37:03.000Z,14.6
2022-10-25T03:39:48.000Z,14.6
2022-10-25T03:42:33.000Z,14.6
2022-10-25T03:45:17.000Z,14.6
2022-10-25T03:49:29.000Z,14.6
2022-10-25T03:50:47.000Z,14.6
2022-10-25T03:53:31.000Z,14.7
2022-10-25T03:56:16.000Z,14.6
2022-10-25T04:01:29.000Z,14.6
2022-10-25T04:04:13.864Z,14.5
2022-10-25T04:06:58.000Z,14.5
2022-10-25T04:09:59.000Z,14.4
2022-10-25T04:12:44.000Z,14.5
2022-10-25T04:15:28.000Z,14.6
2022-10-25T04:16:55.000Z,14.5
2022-10-25T04:18:13.000Z,14.6
2022-10-25T04:20:58.000Z,14.6
2022-10-25T04:23:42.000Z,14.5
2022-10-25T04:31:56.000Z,14.5
2022-10-25T04:37:25.000Z,14.5
2022-10-25T04:40:10.000Z,14.5
2022-10-25T04:42:55.000Z,14.5
2022-10-25T04:44:22.000Z,14.5
2022-10-25T04:45:56.000Z,14.5
2022-10-25T04:48:40.000Z,14.4
2022-10-25T04:51:25.000Z,14.4
2022-10-25T04:54:10.000Z,14.5
2022-10-25T04:56:54.000Z,14.5
2022-10-25T04:59:39.000Z,14.5
2022-10-25T05:02:24.000Z,14.5
2022-10-25T05:05:08.000Z,14.5
2022-10-25T05:10:38.000Z,14.5
2022-10-25T05:11:55.000Z,14.4
2022-10-25T05:13:22.000Z,14.4
2022-10-25T05:16:07.000Z,14.4
2022-10-25T05:18:51.000Z,14.4
2022-10-25T05:21:36.000Z,14.4
2022-10-25T05:24:21.000Z,14.4
2022-10-25T05:27:05.000Z,14.4
2022-10-25T05:29:50.000Z,14.4
2022-10-25T05:32:35.000Z,14.4
2022-10-25T05:35:19.000Z,14.3
2022-10-25T05:38:04.000Z,14.3
2022-10-25T05:39:22.000Z,14.3
2022-10-25T05:40:49.000Z,14.2
2022-10-25T05:43:33.000Z,14.2
2022-10-25T05:46:18.000Z,14.2
2022-10-25T05:49:02.000Z,14.2
2022-10-25T05:51:47.000Z,14.1
2022-10-25T05:54:32.000Z,14.1
2022-10-25T05:57:16.000Z,14.1
2022-10-25T06:00:01.000Z,14
2022-10-25T06:02:46.000Z,14
2022-10-25T06:05:30.000Z,13.9
2022-10-25T06:06:48.000Z,13.9
2022-10-25T06:11:16.000Z,13.9
2022-10-25T06:16:45.000Z,13.8
2022-10-25T06:19:30.000Z,13.7
2022-10-25T06:22:15.000Z,13.8
2022-10-25T06:24:59.000Z,13.8
2022-10-25T06:27:44.000Z,13.9
2022-10-25T06:30:28.000Z,13.8
2022-10-25T06:33:13.000Z,13.8
2022-10-25T06:34:31.000Z,13.8
2022-10-25T06:35:58.000Z,13.8
2022-10-25T06:38:59.000Z,13.8
2022-10-25T06:41:43.000Z,13.8
2022-10-25T06:44:28.000Z,13.8
2022-10-25T06:47:13.000Z,13.9
2022-10-25T06:49:57.000Z,13.8
2022-10-25T06:52:42.000Z,13.8
2022-10-25T06:55:27.000Z,13.8
2022-10-25T06:58:11.000Z,13.9
2022-10-25T07:00:56.000Z,14.1
2022-10-25T07:02:14.000Z,14.2
2022-10-25T07:03:41.000Z,14.3
2022-10-25T07:06:25.000Z,14.4
2022-10-25T07:09:10.000Z,14.4
2022-10-25T07:11:54.000Z,14.4
2022-10-25T07:14:39.000Z,14.4
2022-10-25T07:17:24.000Z,14.4
2022-10-25T07:20:08.000Z,14.3
2022-10-25T07:22:53.000Z,14.3
2022-10-25T07:25:38.000Z,14.5
2022-10-25T07:29:40.000Z,16.2
2022-10-25T07:31:07.000Z,16.7
2022-10-25T07:33:52.000Z,16.9
2022-10-25T07:39:21.000Z,16.6
2022-10-25T07:42:06.000Z,15.6
2022-10-25T07:44:50.000Z,15.2
2022-10-25T07:47:35.000Z,15
2022-10-25T07:50:19.000Z,15
2022-10-25T07:53:04.000Z,15
2022-10-25T07:55:49.000Z,15
2022-10-25T07:57:06.000Z,15
2022-10-25T07:58:33.000Z,15
2022-10-25T08:01:18.000Z,15
2022-10-25T08:04:03.000Z,15
2022-10-25T08:06:47.000Z,15
2022-10-25T08:09:32.000Z,15
2022-10-25T08:12:17.000Z,14.9
2022-10-25T08:15:01.000Z,14.9
2022-10-25T08:17:46.000Z,14.9
2022-10-25T08:20:30.000Z,14.9
2022-10-25T08:23:15.000Z,15
2022-10-25T08:24:33.000Z,15
2022-10-25T08:26:00.000Z,15
2022-10-25T08:28:44.000Z,15
2022-10-25T08:31:29.000Z,15
2022-10-25T08:34:14.000Z,15.1
2022-10-25T08:36:58.000Z,15.7
2022-10-25T08:39:43.000Z,15.6
2022-10-25T08:42:28.000Z,15.4
2022-10-25T08:45:12.000Z,15.2
2022-10-25T08:47:57.000Z,15.3
2022-10-25T08:50:42.000Z,15.6
2022-10-25T08:51:59.000Z,16.1
2022-10-25T08:53:26.000Z,16.4
2022-10-25T08:56:11.000Z,16.5
2022-10-25T09:01:40.000Z,16.8
2022-10-25T09:04:25.000Z,17.1
2022-10-25T09:07:26.000Z,16.6
2022-10-25T09:10:10.000Z,16.2
2022-10-25T09:12:55.000Z,16
2022-10-25T09:15:40.000Z,16
2022-10-25T09:18:24.000Z,15.9
2022-10-25T09:19:42.000Z,15.8
2022-10-25T09:21:09.000Z,15.8
2022-10-25T09:23:54.000Z,15.8
2022-10-25T09:26:38.000Z,15.8
2022-10-25T09:29:23.000Z,15.8
2022-10-25T09:32:08.000Z,15.9
2022-10-25T09:34:52.000Z,15.9
2022-10-25T09:37:37.000Z,16
2022-10-25T09:40:21.000Z,16.1
2022-10-25T09:43:06.000Z,16
2022-10-25T09:45:51.000Z,15.9
2022-10-25T09:47:08.000Z,15.8
2022-10-25T09:48:35.000Z,15.8
2022-10-25T09:51:20.000Z,15.8
2022-10-25T09:54:05.000Z,15.9
2022-10-25T09:56:49.000Z,15.9
2022-10-25T09:59:34.000Z,15.8
2022-10-25T10:02:19.000Z,16
2022-10-25T10:07:48.000Z,16
2022-10-25T10:10:32.000Z,15.8
2022-10-25T10:14:35.000Z,15.7
2022-10-25T10:16:02.000Z,15.7
2022-10-25T10:18:46.000Z,15.7
2022-10-25T10:21:31.000Z,15.8
2022-10-25T10:24:16.000Z,16.1
2022-10-25T10:27:00.000Z,16.1
2022-10-25T10:29:45.000Z,16.3
2022-10-25T10:32:46.000Z,16.4
2022-10-25T10:35:31.000Z,16.6
2022-10-25T10:38:15.000Z,16.9
2022-10-25T10:41:00.000Z,17.1
2022-10-25T10:42:18.000Z,17.1
2022-10-25T10:43:45.000Z,16.9
2022-10-25T10:46:29.000Z,16.7
2022-10-25T10:49:14.000Z,16.5
2022-10-25T10:51:58.000Z,16.3
2022-10-25T10:54:43.000Z,16.1
2022-10-25T10:57:28.000Z,16
2022-10-25T11:00:12.000Z,16.1
2022-10-25T11:02:57.000Z,16
2022-10-25T11:05:42.000Z,16.1
2022-10-25T11:08:26.000Z,16.2
2022-10-25T11:09:44.000Z,16.4
2022-10-25T11:11:11.000Z,16.5
2022-10-25T11:13:56.000Z,16.5
2022-10-25T11:16:40.000Z,16.4
2022-10-25T11:19:25.000Z,16.3
2022-10-25T11:22:10.000Z,16.3
2022-10-25T11:24:54.000Z,16.3
2022-10-25T11:27:39.000Z,16.3
2022-10-25T11:30:23.000Z,16.5
2022-10-25T11:33:08.000Z,16.5
2022-10-25T11:35:53.000Z,16.6
2022-10-25T11:37:10.000Z,16.8
2022-10-25T11:38:37.000Z,17.1
2022-10-25T11:41:22.000Z,17.3
2022-10-25T11:44:07.000Z,17.3
2022-10-25T11:46:51.000Z,17.2
2022-10-25T11:49:36.000Z,17.1
2022-10-25T11:52:21.000Z,17.1
2022-10-25T11:55:05.000Z,17.4
2022-10-25T11:57:50.000Z,17.6
2022-10-25T12:00:34.000Z,17.8
2022-10-25T12:03:19.000Z,18.1
2022-10-25T12:04:37.000Z,18
2022-10-25T12:06:04.000Z,17.9
2022-10-25T12:08:48.000Z,17.7
2022-10-25T12:11:33.000Z,17.3
2022-10-25T12:14:18.000Z,17
2022-10-25T12:17:02.000Z,17
2022-10-25T12:19:47.000Z,17.2
2022-10-25T12:22:32.000Z,17.4
2022-10-25T12:25:16.000Z,17.6
2022-10-25T12:28:01.000Z,17.6
2022-10-25T12:30:46.000Z,17.7
2022-10-25T12:32:03.000Z,17.8
2022-10-25T12:33:47.000Z,17.8
2022-10-25T12:36:31.000Z,17.7
2022-10-25T12:39:16.000Z,17.6
2022-10-25T12:42:00.000Z,17.5
2022-10-25T12:44:45.000Z,17.4
2022-10-25T12:47:30.000Z,17.4
2022-10-25T12:50:14.000Z,17.2
2022-10-25T12:52:59.000Z,17.2
2022-10-25T12:55:44.000Z,17.6
2022-10-25T12:58:28.000Z,17.8
2022-10-25T12:59:46.000Z,17.7
2022-10-25T13:01:13.000Z,17.7
2022-10-25T13:03:58.000Z,17.6
2022-10-25T13:06:42.000Z,17.4
2022-10-25T13:09:27.000Z,17.2
2022-10-25T13:12:12.000Z,17.1
2022-10-25T13:14:56.000Z,16.9
2022-10-25T13:17:41.000Z,16.9
2022-10-25T13:20:25.000Z,16.9
2022-10-25T13:23:10.000Z,16.9
2022-10-25T13:25:55.000Z,16.9
2022-10-25T13:27:12.000Z,16.9
2022-10-25T13:28:39.000Z,16.9
2022-10-25T13:31:24.000Z,16.9
2022-10-25T13:34:09.000Z,16.9
2022-10-25T13:36:53.000Z,16.9
2022-10-25T13:39:38.000Z,17.1
2022-10-25T13:42:23.000Z,17.3
2022-10-25T13:45:07.000Z,17.4
2022-10-25T13:47:52.000Z,17.3
2022-10-25T13:50:36.000Z,17.2
2022-10-25T13:53:21.000Z,17.1
2022-10-25T13:54:39.000Z,16.9
2022-10-25T13:56:06.000Z,16.9
2022-10-25T13:58:50.000Z,16.9
2022-10-25T14:01:35.000Z,16.9
2022-10-25T14:07:04.000Z,16.8
2022-10-25T14:09:49.000Z,16.7
2022-10-25T14:12:34.000Z,16.8
2022-10-25T14:15:18.000Z,16.9
2022-10-25T14:18:03.000Z,17.2
2022-10-25T14:20:48.000Z,17.3
2022-10-25T14:22:05.000Z,17.4
2022-10-25T14:23:32.000Z,17.3
2022-10-25T14:26:17.000Z,17.2
2022-10-25T14:31:46.000Z,17.2
2022-10-25T14:34:31.000Z,17.2
2022-10-25T14:37:15.000Z,17.2
2022-10-25T14:42:45.000Z,17.1
2022-10-25T14:45:29.000Z,17
2022-10-25T14:48:14.000Z,17
2022-10-25T14:49:32.000Z,16.9
2022-10-25T14:50:59.000Z,16.9
2022-10-25T14:53:43.000Z,16.9
2022-10-25T14:56:28.000Z,16.9
2022-10-25T14:59:12.000Z,16.9
2022-10-25T15:01:57.000Z,16.8
2022-10-25T15:04:42.000Z,16.8
2022-10-25T15:07:26.000Z,16.8
2022-10-25T15:10:11.000Z,16.8
2022-10-25T15:12:56.000Z,16.7
2022-10-25T15:15:40.000Z,16.7
2022-10-25T15:16:58.000Z,16.7
2022-10-25T15:18:25.000Z,16.7
2022-10-25T15:21:10.000Z,16.7
2022-10-25T15:23:54.000Z,16.7
2022-10-25T15:26:39.000Z,16.6
2022-10-25T15:29:24.000Z,16.6
2022-10-25T15:32:08.000Z,16.5
2022-10-25T15:34:53.000Z,16.5
2022-10-25T15:37:37.000Z,16.4
2022-10-25T15:40:22.000Z,16.4
2022-10-25T15:43:07.000Z,16.3
2022-10-25T15:44:25.000Z,16.2
2022-10-25T15:45:51.000Z,16.2
2022-10-25T15:51:21.000Z,16
2022-10-25T15:54:05.000Z,15.9
2022-10-25T15:56:50.000Z,15.8
2022-10-25T15:59:35.000Z,15.7
2022-10-25T16:02:19.000Z,15.5
2022-10-25T16:05:04.000Z,15.3
2022-10-25T16:07:49.000Z,15.1
2022-10-25T16:10:33.000Z,14.9
2022-10-25T16:11:51.000Z,14.8
2022-10-25T16:13:18.000Z,14.7
2022-10-25T16:16:02.000Z,14.6
2022-10-25T16:18:47.000Z,14.5
2022-10-25T16:21:32.000Z,14.4
2022-10-25T16:24:16.000Z,14.3
2022-10-25T16:27:01.000Z,14.1
2022-10-25T16:29:46.000Z,14
2022-10-25T16:32:30.000Z,13.9
2022-10-25T16:35:15.000Z,13.8
2022-10-25T16:38:00.000Z,13.7
2022-10-25T16:39:18.000Z,13.6
2022-10-25T16:40:44.000Z,13.5
2022-10-25T16:43:29.000Z,13.5
2022-10-25T16:46:13.000Z,13.4
2022-10-25T16:48:58.000Z,13.3
2022-10-25T16:51:43.000Z,13.2
2022-10-25T16:54:27.000Z,13.2
2022-10-25T16:57:12.000Z,13.1
2022-10-25T16:59:57.000Z,13
2022-10-25T17:02:41.000Z,13
2022-10-25T17:05:26.000Z,12.9
2022-10-25T17:06:44.000Z,12.8
2022-10-25T17:08:11.000Z,12.8
2022-10-25T17:10:55.000Z,12.8
2022-10-25T17:13:40.000Z,12.7
2022-10-25T17:16:25.000Z,12.6
2022-10-25T17:19:09.000Z,12.5
2022-10-25T17:21:54.000Z,12.5
2022-10-25T17:24:38.000Z,12.4
2022-10-25T17:27:23.000Z,12.3
2022-10-25T17:30:08.000Z,12.3
2022-10-25T17:32:52.000Z,12.2
2022-10-25T17:34:10.000Z,12.1
2022-10-25T17:35:37.000Z,12
2022-10-25T17:38:22.000Z,12
2022-10-25T17:41:06.000Z,11.9
2022-10-25T17:43:51.000Z,11.9
2022-10-25T17:46:36.000Z,11.8
2022-10-25T17:49:20.000Z,11.7
2022-10-25T17:52:05.000Z,11.7
2022-10-25T17:54:49.000Z,11.7
2022-10-25T17:57:34.000Z,11.6
2022-10-25T18:00:19.000Z,11.6
2022-10-25T18:01:37.000Z,11.6
2022-10-25T18:03:03.000Z,11.7
2022-10-25T18:05:48.000Z,11.7
2022-10-25T18:11:17.000Z,11.6
2022-10-25T18:14:02.000Z,11.5
2022-10-25T18:16:47.000Z,11.4
2022-10-25T18:19:31.000Z,11.3
2022-10-25T18:22:16.000Z,11.3
2022-10-25T18:25:01.000Z,11.3
2022-10-25T18:27:45.000Z,11.2
2022-10-25T18:29:03.000Z,11.1
2022-10-25T18:30:30.000Z,11.1
2022-10-25T18:33:14.000Z,11
2022-10-25T18:35:59.000Z,11
2022-10-25T18:38:44.000Z,10.9
2022-10-25T18:41:28.000Z,10.9
2022-10-25T18:44:13.000Z,10.9
2022-10-25T18:46:58.000Z,10.8
2022-10-25T18:49:42.000Z,10.7
2022-10-25T18:52:27.000Z,10.7
2022-10-25T18:55:12.000Z,10.8
2022-10-25T18:57:56.000Z,10.7
2022-10-25T19:00:41.000Z,10.7
2022-10-25T19:03:25.000Z,10.7
2022-10-25T19:06:10.000Z,10.7
2022-10-25T19:08:55.000Z,10.6
2022-10-25T19:11:39.000Z,10.5
2022-10-25T19:14:24.000Z,10.4
2022-10-25T19:17:09.000Z,10.3
2022-10-25T19:19:53.000Z,10.3
2022-10-25T19:22:38.000Z,10.3
2022-10-25T19:23:56.000Z,10.3
2022-10-25T19:25:23.000Z,10.3
2022-10-25T19:28:07.000Z,10.3
2022-10-25T19:30:52.000Z,10.2
2022-10-25T19:33:37.000Z,10.2
2022-10-25T19:36:21.000Z,10.2
2022-10-25T19:39:06.000Z,10.2
2022-10-25T19:41:50.000Z,10.2
2022-10-25T19:44:35.000Z,10.1
2022-10-25T19:47:20.000Z,10.1
2022-10-25T19:50:04.000Z,9.9
2022-10-25T19:51:22.000Z,9.8
2022-10-25T19:52:49.000Z,9.8
2022-10-25T19:55:34.000Z,9.8
2022-10-25T19:58:18.000Z,9.9
2022-10-25T20:01:03.000Z,10
2022-10-25T20:03:48.000Z,10
2022-10-25T20:06:32.000Z,9.9
2022-10-25T20:09:17.000Z,9.9
2022-10-25T20:12:02.000Z,9.8
2022-10-25T20:14:46.000Z,9.8
2022-10-25T20:17:31.000Z,9.8
2022-10-25T20:18:49.000Z,9.8
2022-10-25T20:20:15.000Z,9.8
2022-10-25T20:23:00.000Z,9.8
2022-10-25T20:25:45.000Z,9.8
2022-10-25T20:28:29.000Z,9.8
2022-10-25T20:31:14.000Z,9.8
2022-10-25T20:33:59.000Z,9.7
2022-10-25T20:36:43.000Z,9.7
2022-10-25T20:39:28.000Z,9.7
2022-10-25T20:42:13.000Z,9.6
2022-10-25T20:44:57.000Z,9.6
2022-10-25T20:46:15.000Z,9.5
2022-10-25T20:47:42.000Z,9.5
2022-10-25T20:50:27.000Z,9.5
2022-10-25T20:53:28.000Z,9.4
2022-10-25T20:56:12.000Z,9.4
2022-10-25T21:01:41.000Z,9.4
2022-10-25T21:04:26.000Z,9.4
2022-10-25T21:07:11.000Z,9.4
2022-10-25T21:09:55.000Z,9.4
2022-10-25T21:12:40.000Z,9.4
2022-10-25T21:13:58.000Z,9.4
2022-10-25T21:15:25.000Z,9.4
2022-10-25T21:18:09.000Z,9.4
2022-10-25T21:20:54.000Z,9.3
2022-10-25T21:23:39.000Z,9.3
2022-10-25T21:26:23.000Z,9.2
2022-10-25T21:29:08.000Z,9.2
2022-10-25T21:31:52.000Z,9.1
2022-10-25T21:34:37.000Z,9
2022-10-25T21:37:22.000Z,9
2022-10-25T21:40:06.000Z,9
2022-10-25T21:41:24.000Z,9
2022-10-25T21:42:51.000Z,9
2022-10-25T21:45:36.000Z,9.1
2022-10-25T21:48:20.000Z,9.1
2022-10-25T21:51:05.000Z,9.2
2022-10-25T21:53:50.000Z,9.2
2022-10-25T21:59:19.000Z,9.1
2022-10-25T22:02:04.000Z,9
2022-10-25T22:04:48.000Z,9
2022-10-25T22:07:33.000Z,9.1
2022-10-25T22:08:51.000Z,8.9
2022-10-25T22:10:17.000Z,8.9
2022-10-25T22:13:02.000Z,8.9
2022-10-25T22:15:47.000Z,8.9
2022-10-25T22:18:31.000Z,8.9
2022-10-25T22:21:16.000Z,8.9
2022-10-25T22:24:01.000Z,8.9
2022-10-25T22:26:45.000Z,8.9
2022-10-25T22:29:30.000Z,8.9
2022-10-25T22:32:15.000Z,8.9
2022-10-25T22:34:59.000Z,8.9
2022-10-25T22:36:17.000Z,8.8
2022-10-25T22:37:44.000Z,8.8
2022-10-25T22:40:28.000Z,8.8
2022-10-25T22:43:13.000Z,8.8
2022-10-25T22:45:58.000Z,8.8
2022-10-25T22:48:42.000Z,8.7
2022-10-25T22:51:27.000Z,8.8
2022-10-25T22:54:12.000Z,8.8
2022-10-25T22:56:56.000Z,8.7
2022-10-25T22:59:41.000Z,8.6
2022-10-25T23:02:26.000Z,8.5
2022-10-25T23:03:43.000Z,8.5
2022-10-25T23:05:10.000Z,8.5
2022-10-25T23:07:55.000Z,8.5
2022-10-25T23:10:40.000Z,8.5
2022-10-25T23:13:24.000Z,8.4
2022-10-25T23:16:09.000Z,8.3
2022-10-25T23:18:53.000Z,8.3
2022-10-25T23:21:38.000Z,8.4
2022-10-25T23:24:23.000Z,8.4
2022-10-25T23:27:07.000Z,8.4
2022-10-25T23:29:52.000Z,8.4
2022-10-25T23:31:10.000Z,8.4
2022-10-25T23:32:37.000Z,8.4
2022-10-25T23:35:21.000Z,8.4
2022-10-25T23:38:06.000Z,8.4
2022-10-25T23:40:51.000Z,8.4
2022-10-25T23:43:35.000Z,8.3
2022-10-25T23:46:20.000Z,8.4
2022-10-25T23:49:04.000Z,8.5
2022-10-25T23:51:49.000Z,8.4
2022-10-25T23:54:34.000Z,8.4
2022-10-25T23:57:18.000Z,8.3
2022-10-25T23:58:36.000Z,8.2
